Time;durP1;ratioP1;P1;durP2;ratioP2;P2;SDS_P1;SDS_P2;PMS_P1;PMS_P2;Temp;Humidity;BMP_temperature;BMP_pressure;BME280_temperature;BME280_humidity;BME280_pressure;Samples;Min_cycle;Max_cycle;Signal;HPM_P1;HPM_P2
2021/08/28 00:01:23;;;;;;;6.95;3.03;;;17.20;72.10;;;;;;5046707;28;20048;-77
2021/08/28 00:03:48;;;;;;;6.28;2.58;;;17.10;72.00;;;;;;5046157;28;20029;-78
2021/08/28 00:06:14;;;;;;;7.85;2.60;;;17.10;72.10;;;;;;5054085;28;20421;-78
2021/08/28 00:08:40;;;;;;;8.05;2.35;;;17.00;72.10;;;;;;5053451;28;20065;-78
2021/08/28 00:11:06;;;;;;;5.35;2.22;;;17.00;72.30;;;;;;5054400;28;20112;-78
2021/08/28 00:13:32;;;;;;;5.18;2.35;;;16.90;72.20;;;;;;5052438;28;20029;-78
2021/08/28 00:15:57;;;;;;;6.93;2.20;;;16.90;72.40;;;;;;5053725;28;20048;-78
2021/08/28 00:18:23;;;;;;;13.48;5.72;;;16.80;72.40;;;;;;5053621;28;20108;-78
2021/08/28 00:20:49;;;;;;;14.93;6.93;;;16.80;72.60;;;;;;5053139;28;20033;-78
2021/08/28 00:23:14;;;;;;;8.82;4.43;;;16.80;72.70;;;;;;5052842;28;20441;-78
2021/08/28 00:25:40;;;;;;;12.73;6.75;;;16.80;72.90;;;;;;5053693;28;20025;-77
2021/08/28 00:28:06;;;;;;;8.77;3.65;;;16.70;72.70;;;;;;5052063;28;20025;-77
2021/08/28 00:30:31;;;;;;;9.35;3.42;;;16.60;72.90;;;;;;5050180;28;20021;-78
2021/08/28 00:33:06;;;;;;;6.53;3.00;;;16.60;73.10;;;;;;5053126;28;20029;-78
2021/08/28 00:35:32;;;;;;;7.60;2.50;;;16.60;73.10;;;;;;5083539;28;20123;-78
2021/08/28 00:37:58;;;;;;;6.70;2.78;;;16.60;73.00;;;;;;5052785;28;20104;-78
2021/08/28 00:40:23;;;;;;;6.60;2.90;;;16.50;73.30;;;;;;5052983;28;20017;-78
2021/08/28 00:42:53;;;;;;;4.53;2.03;;;16.60;73.60;;;;;;5052794;28;20048;-78
2021/08/28 00:45:26;;;;;;;6.00;2.47;;;16.50;73.60;;;;;;5046703;28;20047;-78
2021/08/28 00:48:08;;;;;;;5.15;2.10;;;16.50;73.40;;;;;;5047142;28;20025;-77
2021/08/28 00:50:35;;;;;;;4.85;2.22;;;16.50;73.40;;;;;;5052707;28;20033;-78
2021/08/28 00:53:02;;;;;;;6.07;2.47;;;16.50;73.80;;;;;;5051665;28;20033;-78
2021/08/28 00:55:34;;;;;;;5.18;2.00;;;16.40;73.50;;;;;;5050034;28;20508;-78
2021/08/28 00:58:00;;;;;;;6.53;1.80;;;16.50;73.80;;;;;;5052640;28;20044;-78
2021/08/28 01:00:26;;;;;;;8.68;2.50;;;16.50;73.70;;;;;;5051572;28;20056;-77
2021/08/28 01:02:53;;;;;;;6.63;2.40;;;16.40;73.40;;;;;;5051585;28;20040;-77
2021/08/28 01:05:24;;;;;;;5.45;2.10;;;16.40;74.60;;;;;;5052886;28;20025;-78
2021/08/28 01:08:15;;;;;;;5.35;2.15;;;16.40;73.80;;;;;;5052753;28;20056;-78
2021/08/28 01:10:50;;;;;;;4.72;1.90;;;16.40;73.20;;;;;;5052600;28;20029;-77
2021/08/28 01:13:17;;;;;;;5.72;2.17;;;16.40;74.70;;;;;;5050918;28;20139;-78
2021/08/28 01:15:47;;;;;;;5.57;1.90;;;16.40;73.90;;;;;;5052113;28;20029;-78
2021/08/28 01:18:14;;;;;;;5.05;1.95;;;16.40;74.00;;;;;;5052651;28;20498;-78
2021/08/28 01:20:43;;;;;;;4.28;1.95;;;16.40;74.00;;;;;;5056051;28;20017;-78
2021/08/28 01:23:10;;;;;;;4.20;2.00;;;16.30;73.80;;;;;;5053615;28;20045;-78
2021/08/28 01:25:37;;;;;;;5.38;2.10;;;16.30;74.20;;;;;;5050877;28;20122;-78
2021/08/28 01:28:07;;;;;;;5.57;1.80;;;16.40;74.30;;;;;;5052305;28;20394;-78
2021/08/28 01:30:34;;;;;;;5.53;1.95;;;16.30;73.80;;;;;;5052470;28;20014;-78
2021/08/28 01:33:04;;;;;;;5.93;2.13;;;16.30;74.20;;;;;;5051025;28;20032;-78
2021/08/28 01:35:30;;;;;;;4.55;2.25;;;16.40;74.10;;;;;;5043092;28;20048;-78
2021/08/28 01:37:57;;;;;;;5.20;2.13;;;16.40;73.80;;;;;;5045050;28;20397;-78
2021/08/28 01:40:25;;;;;;;6.60;2.00;;;16.30;73.70;;;;;;5052143;28;20021;-78
2021/08/28 01:42:52;;;;;;;4.85;2.40;;;16.20;74.00;;;;;;5051807;28;20053;-77
2021/08/28 01:45:22;;;;;;;5.82;1.80;;;16.20;74.30;;;;;;5052166;28;20049;-78
2021/08/28 01:47:49;;;;;;;5.38;2.00;;;16.10;73.90;;;;;;5052407;28;20036;-78
2021/08/28 01:50:18;;;;;;;7.00;2.47;;;16.00;74.10;;;;;;5053589;28;20025;-77
2021/08/28 01:52:45;;;;;;;5.45;2.28;;;16.00;74.40;;;;;;5048982;28;20064;-77
2021/08/28 01:55:11;;;;;;;5.65;2.17;;;15.90;74.60;;;;;;5051960;28;20013;-77
2021/08/28 01:57:37;;;;;;;5.05;2.20;;;15.90;74.90;;;;;;5048416;28;20033;-77
2021/08/28 02:00:03;;;;;;;4.30;2.03;;;15.90;74.80;;;;;;5051704;28;20385;-77
2021/08/28 02:02:29;;;;;;;4.95;2.20;;;15.90;74.80;;;;;;5053858;28;20036;-77
2021/08/28 02:04:55;;;;;;;4.88;2.00;;;16.00;74.90;;;;;;5050986;28;20036;-77
2021/08/28 02:07:26;;;;;;;6.40;2.10;;;16.00;74.70;;;;;;5051586;28;20029;-77
2021/08/28 02:10:00;;;;;;;5.07;2.05;;;16.00;74.70;;;;;;5051530;28;20075;-77
2021/08/28 02:12:26;;;;;;;6.13;2.03;;;15.90;74.50;;;;;;5051672;28;20087;-77
2021/08/28 02:15:07;;;;;;;5.43;2.00;;;15.90;74.80;;;;;;5045182;28;20021;-77
2021/08/28 02:17:43;;;;;;;5.15;2.20;;;15.80;74.70;;;;;;5049951;28;20447;-77
2021/08/28 02:20:10;;;;;;;5.45;1.80;;;15.80;74.70;;;;;;5052162;28;20021;-77
2021/08/28 02:22:40;;;;;;;6.55;2.25;;;15.80;74.90;;;;;;5049828;28;20120;-77
2021/08/28 02:25:19;;;;;;;7.03;2.17;;;15.70;75.00;;;;;;5049510;28;20052;-77
2021/08/28 02:27:53;;;;;;;5.50;2.15;;;15.70;74.70;;;;;;5049538;28;20462;-76
2021/08/28 02:30:20;;;;;;;4.53;2.10;;;15.70;74.80;;;;;;5049604;28;20049;-77
2021/08/28 02:32:52;;;;;;;5.95;2.47;;;15.70;75.10;;;;;;5051426;28;20021;-77
2021/08/28 02:35:18;;;;;;;4.87;2.03;;;15.60;75.20;;;;;;5051416;28;20025;-77
2021/08/28 02:37:45;;;;;;;5.25;2.20;;;15.60;75.50;;;;;;5049634;28;20093;-77
2021/08/28 02:40:14;;;;;;;7.22;2.67;;;15.70;75.70;;;;;;5050737;28;20048;-77
2021/08/28 02:42:41;;;;;;;5.45;2.30;;;15.70;75.70;;;;;;5050373;28;20052;-77
2021/08/28 02:45:08;;;;;;;4.78;2.33;;;15.70;75.70;;;;;;5050988;28;20029;-77
2021/08/28 02:47:35;;;;;;;7.93;2.63;;;15.70;75.30;;;;;;5047183;28;20409;-77
2021/08/28 02:50:02;;;;;;;6.90;2.35;;;15.60;75.20;;;;;;5039494;28;20057;-77
2021/08/28 02:52:29;;;;;;;7.95;2.33;;;15.60;75.60;;;;;;5046326;28;20047;-77
2021/08/28 02:54:58;;;;;;;5.43;2.30;;;15.60;75.60;;;;;;5050659;28;20029;-77
2021/08/28 02:57:26;;;;;;;5.88;2.50;;;15.50;75.60;;;;;;5050804;28;20086;-76
2021/08/28 03:00:01;;;;;;;8.10;2.50;;;15.50;75.80;;;;;;5049956;28;20017;-77
2021/08/28 03:02:27;;;;;;;5.97;2.15;;;15.50;75.60;;;;;;5051854;28;20489;-77
2021/08/28 03:04:53;;;;;;;6.28;2.38;;;15.50;76.10;;;;;;5050384;28;20059;-77
2021/08/28 03:07:20;;;;;;;6.85;2.17;;;15.60;76.00;;;;;;5050300;28;20039;-77
2021/08/28 03:09:46;;;;;;;5.32;2.40;;;15.50;76.90;;;;;;5047532;28;20025;-77
2021/08/28 03:12:12;;;;;;;4.32;2.22;;;15.60;75.90;;;;;;5049031;28;20500;-77
2021/08/28 03:14:37;;;;;;;6.40;2.67;;;15.60;76.00;;;;;;5051927;28;20025;-77
2021/08/28 03:17:05;;;;;;;5.20;2.47;;;15.60;76.00;;;;;;5049246;28;20055;-77
2021/08/28 03:19:32;;;;;;;6.72;2.22;;;15.60;75.80;;;;;;5050316;28;20473;-77
2021/08/28 03:22:00;;;;;;;4.85;2.42;;;15.60;75.70;;;;;;5049969;28;20031;-77
2021/08/28 03:24:28;;;;;;;5.65;2.28;;;15.60;75.80;;;;;;5050341;28;20025;-76
2021/08/28 03:26:56;;;;;;;6.38;2.38;;;15.50;75.50;;;;;;5050403;28;20087;-77
2021/08/28 03:29:23;;;;;;;5.63;2.70;;;15.50;75.70;;;;;;5050950;28;20115;-77
2021/08/28 03:31:54;;;;;;;4.82;2.25;;;15.40;75.60;;;;;;5047214;28;20024;-77
2021/08/28 03:34:20;;;;;;;8.38;2.53;;;15.40;75.90;;;;;;5047259;28;20089;-77
2021/08/28 03:36:46;;;;;;;8.02;2.38;;;15.40;76.00;;;;;;5049953;28;20067;-77
2021/08/28 03:39:12;;;;;;;7.07;2.53;;;15.30;76.00;;;;;;5049906;28;20028;-77
2021/08/28 03:41:39;;;;;;;5.97;2.70;;;15.20;76.10;;;;;;5051080;28;20049;-77
2021/08/28 03:44:05;;;;;;;6.43;2.80;;;15.20;77.20;;;;;;5048658;28;20098;-77
2021/08/28 03:46:34;;;;;;;6.47;2.63;;;15.20;76.40;;;;;;5049532;28;20013;-76
2021/08/28 03:48:59;;;;;;;6.55;2.60;;;15.20;76.20;;;;;;5048399;28;20032;-77
2021/08/28 03:51:25;;;;;;;6.30;2.42;;;15.20;76.70;;;;;;5049963;28;20017;-77
2021/08/28 03:53:51;;;;;;;5.05;2.10;;;15.20;76.60;;;;;;5050007;28;20036;-77
2021/08/28 03:56:16;;;;;;;6.68;2.40;;;15.10;76.70;;;;;;5051878;28;20025;-77
2021/08/28 03:58:42;;;;;;;6.03;2.53;;;15.20;77.00;;;;;;5049850;28;20025;-77
2021/08/28 04:01:08;;;;;;;4.30;2.20;;;15.20;76.70;;;;;;5049516;28;20025;-77
2021/08/28 04:03:33;;;;;;;4.80;2.10;;;15.20;76.70;;;;;;5048905;28;20017;-77
2021/08/28 04:05:59;;;;;;;7.10;2.40;;;15.20;76.90;;;;;;5049397;28;20371;-77
2021/08/28 04:08:25;;;;;;;4.70;2.30;;;15.20;76.80;;;;;;5050025;28;20035;-77
2021/08/28 04:10:50;;;;;;;3.85;2.10;;;15.20;76.80;;;;;;5049310;28;20021;-76
2021/08/28 04:13:16;;;;;;;5.20;2.30;;;15.20;76.90;;;;;;5043304;28;20032;-77
2021/08/28 04:15:42;;;;;;;5.28;2.25;;;15.10;76.90;;;;;;5047212;28;20068;-76
2021/08/28 04:18:08;;;;;;;4.50;2.28;;;15.10;76.90;;;;;;5043668;28;20022;-77
2021/08/28 04:20:34;;;;;;;6.05;2.10;;;15.10;76.90;;;;;;5034590;28;20036;-76
2021/08/28 04:22:59;;;;;;;4.50;2.30;;;15.10;77.20;;;;;;5049377;28;20037;-77
2021/08/28 04:25:25;;;;;;;6.93;2.75;;;15.10;77.20;;;;;;5049127;28;20057;-77
2021/08/28 04:27:51;;;;;;;4.65;2.05;;;15.10;76.80;;;;;;5046350;28;20401;-76
2021/08/28 04:30:17;;;;;;;7.78;2.22;;;15.10;77.00;;;;;;5049099;28;20489;-77
2021/08/28 04:32:43;;;;;;;4.78;2.70;;;15.10;77.00;;;;;;5048423;28;20025;-77
2021/08/28 04:35:09;;;;;;;5.63;2.40;;;15.10;77.20;;;;;;5050148;28;20044;-77
2021/08/28 04:37:35;;;;;;;7.25;2.60;;;15.00;77.10;;;;;;5049308;28;20025;-77
2021/08/28 04:40:01;;;;;;;7.00;2.40;;;15.00;77.20;;;;;;5048296;28;20086;-77
2021/08/28 04:42:26;;;;;;;8.40;2.80;;;15.00;77.60;;;;;;5048974;28;20494;-77
2021/08/28 04:44:54;;;;;;;7.18;2.53;;;15.00;77.60;;;;;;5049007;28;20021;-77
2021/08/28 04:47:20;;;;;;;4.93;2.22;;;15.00;77.60;;;;;;5044540;28;20025;-77
2021/08/28 04:49:47;;;;;;;7.60;2.28;;;15.10;77.80;;;;;;5048981;28;20075;-77
2021/08/28 04:52:13;;;;;;;5.43;2.35;;;15.00;77.80;;;;;;5052282;28;20029;-77
2021/08/28 04:54:38;;;;;;;5.57;2.75;;;15.00;77.70;;;;;;5052301;28;20623;-77
2021/08/28 04:57:04;;;;;;;7.28;2.70;;;15.10;77.80;;;;;;5036618;28;20378;-77
2021/08/28 04:59:30;;;;;;;5.97;2.40;;;15.00;77.60;;;;;;5051508;28;20481;-77
2021/08/28 05:01:58;;;;;;;5.38;2.50;;;15.00;77.60;;;;;;5050432;28;20493;-77
2021/08/28 05:04:24;;;;;;;4.50;2.28;;;15.10;77.70;;;;;;5052375;28;20056;-77
2021/08/28 05:06:50;;;;;;;7.88;2.67;;;15.00;77.60;;;;;;5048918;28;20053;-76
2021/08/28 05:09:15;;;;;;;6.50;2.45;;;15.10;77.50;;;;;;5036513;28;20025;-78
2021/08/28 05:11:41;;;;;;;5.97;2.88;;;15.00;77.40;;;;;;5052877;28;20470;-77
2021/08/28 05:14:07;;;;;;;6.55;2.47;;;15.00;77.50;;;;;;5053436;28;20095;-77
2021/08/28 05:16:32;;;;;;;7.75;2.75;;;15.00;77.50;;;;;;5050794;28;20478;-77
2021/08/28 05:18:58;;;;;;;6.88;2.72;;;15.00;77.50;;;;;;5050454;28;20104;-77
2021/08/28 05:21:23;;;;;;;8.20;2.88;;;14.90;77.40;;;;;;5051972;28;20022;-77
2021/08/28 05:23:50;;;;;;;5.10;2.60;;;14.80;77.60;;;;;;5052348;28;20061;-77
2021/08/28 05:26:15;;;;;;;6.20;2.38;;;14.80;77.50;;;;;;5053654;28;20033;-76
2021/08/28 05:28:41;;;;;;;6.30;2.60;;;14.80;77.60;;;;;;5049006;28;20040;-77
2021/08/28 05:31:06;;;;;;;6.93;2.92;;;14.80;77.60;;;;;;5051589;28;20531;-77
2021/08/28 05:33:32;;;;;;;6.72;2.63;;;14.80;77.60;;;;;;5057243;28;20032;-77
2021/08/28 05:35:58;;;;;;;5.35;2.75;;;14.70;77.70;;;;;;5050538;28;20151;-77
2021/08/28 05:38:23;;;;;;;7.00;2.58;;;14.80;77.80;;;;;;5052651;28;20025;-77
2021/08/28 05:40:49;;;;;;;5.10;2.40;;;14.80;78.10;;;;;;5050754;28;20024;-77
2021/08/28 05:43:15;;;;;;;5.90;2.60;;;14.80;78.00;;;;;;5050325;28;20056;-77
2021/08/28 05:45:40;;;;;;;5.50;2.15;;;14.90;78.10;;;;;;5049858;28;20080;-76
2021/08/28 05:48:06;;;;;;;4.70;2.20;;;14.90;78.00;;;;;;5050809;28;20065;-76
2021/08/28 05:50:31;;;;;;;4.97;2.53;;;15.00;78.40;;;;;;5052890;28;20025;-77
2021/08/28 05:52:57;;;;;;;5.32;2.50;;;15.20;78.30;;;;;;5050753;28;20037;-77
2021/08/28 05:55:23;;;;;;;7.50;2.08;;;15.30;77.60;;;;;;5049858;28;20366;-76
2021/08/28 05:57:48;;;;;;;4.60;2.35;;;15.30;77.50;;;;;;5049794;28;20455;-77
2021/08/28 06:00:14;;;;;;;7.72;2.70;;;15.40;77.60;;;;;;5050745;28;20029;-76
2021/08/28 06:02:40;;;;;;;5.35;2.10;;;15.50;77.60;;;;;;5052283;28;20039;-76
2021/08/28 06:05:10;;;;;;;6.07;2.65;;;15.60;77.30;;;;;;5051029;28;20485;-76
2021/08/28 06:07:36;;;;;;;6.65;2.38;;;15.70;77.20;;;;;;5050312;28;20028;-76
2021/08/28 06:10:03;;;;;;;4.70;2.30;;;15.80;77.10;;;;;;5050998;28;20021;-76
2021/08/28 06:12:29;;;;;;;4.88;2.42;;;15.90;76.90;;;;;;5050534;28;20049;-77
2021/08/28 06:14:54;;;;;;;4.47;2.10;;;16.00;76.90;;;;;;5049683;28;20049;-76
2021/08/28 06:17:20;;;;;;;8.05;2.85;;;16.20;76.60;;;;;;5052809;28;20029;-77
2021/08/28 06:19:46;;;;;;;7.40;2.33;;;16.30;76.50;;;;;;5050446;28;20025;-73
2021/08/28 06:22:12;;;;;;;6.82;2.50;;;16.40;76.20;;;;;;5050112;28;20059;-72
2021/08/28 06:24:37;;;;;;;5.63;2.72;;;16.50;75.80;;;;;;5048144;28;20013;-73
2021/08/28 06:27:03;;;;;;;4.47;2.45;;;16.60;75.50;;;;;;5050689;28;20116;-74
2021/08/28 06:29:29;;;;;;;4.32;2.22;;;16.70;75.50;;;;;;5052628;28;20021;-68
2021/08/28 06:31:55;;;;;;;5.80;2.22;;;16.80;75.40;;;;;;5050727;28;20036;-68
2021/08/28 06:34:20;;;;;;;4.72;2.08;;;16.90;74.60;;;;;;5050585;28;20021;-70
2021/08/28 06:36:46;;;;;;;4.95;2.28;;;17.00;74.70;;;;;;5050937;28;20035;-70
2021/08/28 06:39:11;;;;;;;5.20;2.25;;;17.00;74.40;;;;;;5050465;28;20025;-68
2021/08/28 06:41:37;;;;;;;4.68;2.10;;;17.00;74.40;;;;;;5051817;28;20421;-66
2021/08/28 06:44:03;;;;;;;5.57;2.17;;;17.20;74.70;;;;;;5050090;28;20405;-67
2021/08/28 06:46:30;;;;;;;4.97;2.20;;;17.30;74.10;;;;;;5055154;28;20025;-68
2021/08/28 06:48:56;;;;;;;4.40;1.92;;;17.40;73.70;;;;;;5062936;28;20056;-66
2021/08/28 06:51:22;;;;;;;4.72;2.10;;;17.50;73.40;;;;;;5049168;28;20024;-67
2021/08/28 06:53:49;;;;;;;4.25;2.20;;;17.50;73.40;;;;;;5060809;28;20028;-68
2021/08/28 06:56:15;;;;;;;5.00;2.00;;;17.60;73.20;;;;;;5050330;28;20021;-68
2021/08/28 06:58:41;;;;;;;4.78;1.90;;;17.70;73.10;;;;;;5050342;28;20043;-68
2021/08/28 07:01:07;;;;;;;4.43;2.00;;;17.80;73.10;;;;;;5050466;28;20115;-68
2021/08/28 07:03:33;;;;;;;4.72;1.75;;;17.90;72.80;;;;;;5039060;28;20032;-68
2021/08/28 07:05:58;;;;;;;4.10;1.80;;;18.10;72.90;;;;;;5050119;28;20029;-68
2021/08/28 07:08:24;;;;;;;5.15;1.77;;;18.20;72.10;;;;;;5051376;28;20040;-70
2021/08/28 07:10:50;;;;;;;7.93;1.70;;;18.30;71.80;;;;;;5049547;28;20104;-69
2021/08/28 07:13:15;;;;;;;3.47;1.38;;;18.40;71.70;;;;;;5049572;28;20052;-68
2021/08/28 07:15:41;;;;;;;4.72;1.77;;;18.50;71.60;;;;;;5050412;28;20029;-67
2021/08/28 07:18:08;;;;;;;4.95;1.85;;;18.70;71.00;;;;;;5050504;28;20058;-67
2021/08/28 07:20:35;;;;;;;4.80;1.67;;;18.80;70.60;;;;;;5051455;28;20123;-67
2021/08/28 07:23:01;;;;;;;4.07;1.50;;;19.00;71.40;;;;;;5049411;28;20045;-67
2021/08/28 07:25:26;;;;;;;4.22;1.77;;;19.10;69.80;;;;;;5049430;28;20164;-69
2021/08/28 07:27:53;;;;;;;4.13;1.90;;;19.10;68.70;;;;;;5049780;28;20051;-69
2021/08/28 07:30:19;;;;;;;5.13;1.52;;;19.10;68.20;;;;;;5049188;28;20029;-67
2021/08/28 07:32:44;;;;;;;5.65;1.80;;;19.20;69.30;;;;;;5050674;28;20017;-71
2021/08/28 07:35:10;;;;;;;4.93;1.70;;;19.40;68.20;;;;;;5050423;28;20127;-71
2021/08/28 07:37:36;;;;;;;5.18;1.58;;;19.50;66.20;;;;;;5049418;28;20190;-69
2021/08/28 07:40:03;;;;;;;3.83;1.60;;;19.50;67.30;;;;;;5049962;28;20029;-70
2021/08/28 07:42:28;;;;;;;5.93;1.70;;;19.50;65.90;;;;;;5048437;28;20049;-70
2021/08/28 07:44:54;;;;;;;6.35;1.80;;;19.50;65.90;;;;;;5050078;28;20048;-71
2021/08/28 07:47:20;;;;;;;6.57;2.10;;;19.40;65.30;;;;;;5050989;28;20035;-70
2021/08/28 07:49:45;;;;;;;4.15;1.48;;;19.50;65.70;;;;;;5050054;28;20482;-70
2021/08/28 07:52:11;;;;;;;4.70;1.52;;;19.50;65.60;;;;;;5049629;28;20063;-70
2021/08/28 07:54:37;;;;;;;4.97;1.63;;;19.40;64.20;;;;;;5050002;28;20067;-71
2021/08/28 07:57:03;;;;;;;3.65;1.50;;;19.40;65.00;;;;;;5034303;28;20071;-71
2021/08/28 07:59:28;;;;;;;7.82;1.83;;;19.50;64.20;;;;;;5051990;28;20097;-71
2021/08/28 08:01:54;;;;;;;4.65;1.70;;;19.60;65.10;;;;;;5048664;28;20049;-71
2021/08/28 08:04:20;;;;;;;7.07;1.88;;;19.70;64.30;;;;;;5049864;28;20098;-72
2021/08/28 08:06:46;;;;;;;4.50;1.80;;;19.90;65.50;;;;;;5049500;28;20395;-71
2021/08/28 08:09:11;;;;;;;5.13;2.20;;;20.00;64.20;;;;;;5050060;28;20104;-70
2021/08/28 08:11:37;;;;;;;6.28;1.70;;;20.20;65.30;;;;;;5051292;28;20025;-70
2021/08/28 08:14:03;;;;;;;5.90;2.03;;;20.30;63.40;;;;;;5049071;28;20074;-70
2021/08/28 08:16:29;;;;;;;3.83;1.75;;;20.40;63.70;;;;;;5049907;28;20025;-70
2021/08/28 08:18:55;;;;;;;6.65;1.58;;;20.50;63.90;;;;;;5049625;28;20112;-69
2021/08/28 08:21:21;;;;;;;7.03;1.80;;;20.40;62.70;;;;;;5048106;28;20104;-69
2021/08/28 08:23:47;;;;;;;5.88;1.98;;;20.20;61.50;;;;;;5050479;28;20025;-69
2021/08/28 08:26:12;;;;;;;5.45;2.00;;;20.40;63.30;;;;;;5054073;28;20029;-69
2021/08/28 08:28:38;;;;;;;5.70;1.80;;;20.60;62.70;;;;;;5060259;28;20029;-69
2021/08/28 08:31:04;;;;;;;4.47;1.67;;;20.50;60.90;;;;;;5055306;28;20025;-69
2021/08/28 08:33:30;;;;;;;4.45;1.58;;;20.60;62.50;;;;;;5064546;28;20021;-70
2021/08/28 08:35:55;;;;;;;6.00;1.73;;;20.80;61.20;;;;;;5054755;28;20030;-70
2021/08/28 08:38:21;;;;;;;3.67;1.60;;;20.70;60.40;;;;;;5055108;28;20446;-70
2021/08/28 08:40:48;;;;;;;3.95;1.60;;;20.90;61.30;;;;;;5052739;28;20108;-70
2021/08/28 08:43:14;;;;;;;3.88;1.27;;;21.10;62.50;;;;;;5052660;28;20039;-69
2021/08/28 08:45:42;;;;;;;5.43;1.50;;;21.40;61.80;;;;;;5058998;28;20029;-70
2021/08/28 08:48:08;;;;;;;4.43;1.65;;;21.70;61.70;;;;;;5053024;28;20490;-70
2021/08/28 08:50:34;;;;;;;4.00;1.50;;;21.80;61.30;;;;;;5054023;28;20053;-72
2021/08/28 08:53:03;;;;;;;4.28;1.30;;;21.80;59.10;;;;;;5051169;28;20079;-72
2021/08/28 08:55:30;;;;;;;3.30;1.13;;;21.80;59.90;;;;;;5052600;28;20021;-67
2021/08/28 08:57:57;;;;;;;3.88;1.33;;;21.80;57.80;;;;;;5052731;28;20029;-69
2021/08/28 09:00:22;;;;;;;4.90;1.33;;;21.90;58.50;;;;;;5051111;28;20702;-71
2021/08/28 09:02:48;;;;;;;4.88;1.30;;;22.00;56.40;;;;;;5067140;28;20040;-69
2021/08/28 09:05:14;;;;;;;4.38;1.40;;;21.80;56.50;;;;;;5054049;28;20027;-72
2021/08/28 09:07:39;;;;;;;4.03;1.20;;;22.00;55.90;;;;;;5051301;28;20029;-71
2021/08/28 09:10:05;;;;;;;4.57;1.35;;;22.30;56.00;;;;;;5052610;28;20396;-68
2021/08/28 09:12:39;;;;;;;4.07;1.48;;;22.50;55.50;;;;;;5050514;28;20098;-68
2021/08/28 09:15:08;;;;;;;6.05;1.50;;;22.90;55.90;;;;;;5036700;28;20071;-70
2021/08/28 09:17:34;;;;;;;5.30;1.60;;;23.10;55.40;;;;;;5050493;28;20108;-72
2021/08/28 09:20:01;;;;;;;4.80;1.38;;;23.20;51.10;;;;;;5050463;28;20028;-70
2021/08/28 09:22:33;;;;;;;6.20;1.25;;;23.20;51.90;;;;;;5052069;28;20037;-69
2021/08/28 09:25:05;;;;;;;5.15;1.25;;;23.90;54.50;;;;;;5052082;28;20035;-69
2021/08/28 09:27:51;;;;;;;5.05;1.13;;;24.00;50.10;;;;;;5052127;28;20556;-70
2021/08/28 09:30:22;;;;;;;3.75;1.40;;;24.50;53.00;;;;;;5038247;28;20055;-76
2021/08/28 09:32:53;;;;;;;4.38;1.35;;;24.60;50.20;;;;;;5052076;28;20405;-75
2021/08/28 09:35:20;;;;;;;4.65;1.20;;;25.20;48.60;;;;;;5054337;28;20416;-76
2021/08/28 09:37:54;;;;;;;2.75;1.00;;;25.20;46.40;;;;;;5054032;28;20032;-75
2021/08/28 09:40:26;;;;;;;6.72;1.50;;;25.40;47.80;;;;;;5050595;28;20083;-75
2021/08/28 09:42:53;;;;;;;3.53;1.17;;;25.20;45.70;;;;;;5050418;28;20049;-75
2021/08/28 09:45:23;;;;;;;5.38;2.30;;;25.70;46.40;;;;;;5052158;28;20021;-76
2021/08/28 09:47:50;;;;;;;4.22;1.75;;;26.10;47.30;;;;;;5051682;28;20112;-76
2021/08/28 09:50:33;;;;;;;2.40;1.15;;;26.40;45.00;;;;;;5051601;28;20036;-76
2021/08/28 09:53:01;;;;;;;3.58;1.30;;;26.70;44.80;;;;;;5050327;28;20021;-75
2021/08/28 09:55:31;;;;;;;2.63;1.10;;;26.40;41.70;;;;;;5051794;28;20021;-76
2021/08/28 09:57:56;;;;;;;4.50;1.40;;;26.20;42.00;;;;;;5051376;28;20033;-76
2021/08/28 10:00:22;;;;;;;3.65;1.25;;;26.10;41.40;;;;;;5050618;28;20033;-76
2021/08/28 10:03:05;;;;;;;3.00;1.33;;;26.10;41.30;;;;;;5051825;28;20565;-76
2021/08/28 10:05:34;;;;;;;3.65;1.10;;;26.20;43.70;;;;;;5053116;28;20017;-76
2021/08/28 10:08:01;;;;;;;3.05;1.38;;;26.70;42.70;;;;;;5050392;28;20032;-76
2021/08/28 10:10:28;;;;;;;5.35;1.50;;;27.20;43.60;;;;;;5050346;28;20072;-76
2021/08/28 10:12:55;;;;;;;3.72;1.20;;;27.70;43.00;;;;;;5052701;28;20017;-75
2021/08/28 10:15:22;;;;;;;4.38;1.40;;;27.50;42.00;;;;;;5058709;28;20104;-76
2021/08/28 10:17:48;;;;;;;3.30;1.42;;;27.00;41.90;;;;;;5051021;28;20017;-76
2021/08/28 10:20:17;;;;;;;2.60;1.15;;;26.40;42.80;;;;;;5050094;28;20048;-76
2021/08/28 10:22:43;;;;;;;4.88;1.30;;;26.80;45.50;;;;;;5050530;28;20041;-75
2021/08/28 10:25:13;;;;;;;4.45;1.50;;;26.60;42.50;;;;;;5050684;28;20021;-76
2021/08/28 10:27:40;;;;;;;4.93;1.33;;;26.00;43.90;;;;;;5050879;28;20032;-75
2021/08/28 10:30:09;;;;;;;4.40;1.40;;;26.60;44.90;;;;;;5049239;28;20409;-76
2021/08/28 10:32:36;;;;;;;3.05;1.20;;;27.60;44.40;;;;;;5052837;28;20079;-75
2021/08/28 10:35:03;;;;;;;4.10;1.40;;;28.60;42.80;;;;;;5050987;28;20075;-76
2021/08/28 10:37:28;;;;;;;2.80;1.27;;;28.80;38.00;;;;;;5050731;28;20452;-76
2021/08/28 10:39:55;;;;;;;3.97;1.38;;;29.20;38.60;;;;;;5050399;28;20033;-76
2021/08/28 10:42:22;;;;;;;2.88;1.40;;;29.80;39.30;;;;;;5050160;28;20076;-75
2021/08/28 10:44:52;;;;;;;4.95;1.70;;;29.90;39.60;;;;;;5051280;28;20504;-73
2021/08/28 10:47:23;;;;;;;5.53;2.55;;;30.30;38.60;;;;;;5049923;28;20029;-73
2021/08/28 10:49:50;;;;;;;4.80;1.65;;;29.60;37.70;;;;;;5050657;28;20028;-75
2021/08/28 10:52:25;;;;;;;4.28;1.50;;;29.10;37.80;;;;;;5050503;28;20033;-75
2021/08/28 10:54:58;;;;;;;3.80;1.35;;;28.50;38.10;;;;;;5050572;28;20504;-75
2021/08/28 10:57:26;;;;;;;2.92;1.50;;;27.90;40.10;;;;;;5049281;28;20030;-75
2021/08/28 11:00:09;;;;;;;4.13;1.50;;;28.00;40.00;;;;;;5050330;28;20020;-74
2021/08/28 11:02:49;;;;;;;3.97;1.55;;;28.60;41.50;;;;;;5048773;28;20120;-75
2021/08/28 11:05:17;;;;;;;4.93;1.60;;;29.10;41.00;;;;;;5049918;28;20032;-71
2021/08/28 11:07:44;;;;;;;5.03;1.40;;;29.20;36.20;;;;;;5050256;28;20025;-72
2021/08/28 11:10:09;;;;;;;3.15;1.23;;;29.70;35.60;;;;;;5048655;28;20025;-73
2021/08/28 11:13:01;;;;;;;4.72;1.27;;;30.00;34.20;;;;;;5050348;28;20032;-72
2021/08/28 11:15:30;;;;;;;2.28;1.20;;;30.30;38.00;;;;;;5039754;28;20040;-73
2021/08/28 11:18:03;;;;;;;2.78;1.05;;;31.20;35.00;;;;;;5050178;28;20029;-73
2021/08/28 11:20:35;;;;;;;5.18;2.42;;;31.20;33.50;;;;;;5051867;28;20082;-72
2021/08/28 11:23:23;;;;;;;3.30;1.52;;;30.00;34.00;;;;;;5048886;28;20028;-72
2021/08/28 11:25:57;;;;;;;5.00;2.13;;;29.60;36.30;;;;;;5049036;28;20039;-70
2021/08/28 11:28:34;;;;;;;5.88;2.50;;;28.90;35.00;;;;;;5049960;28;20025;-71
2021/08/28 11:31:01;;;;;;;3.58;1.55;;;27.90;35.90;;;;;;5049535;28;20040;-73
2021/08/28 11:33:27;;;;;;;2.88;1.20;;;26.80;37.10;;;;;;5049878;28;20041;-73
2021/08/28 11:35:55;;;;;;;3.00;1.30;;;27.10;40.10;;;;;;5050093;28;20401;-71
2021/08/28 11:38:50;;;;;;;3.33;1.27;;;28.40;38.70;;;;;;5050379;28;20033;-71
2021/08/28 11:41:24;;;;;;;2.55;1.00;;;29.50;37.30;;;;;;5049786;28;20068;-73
2021/08/28 11:43:51;;;;;;;2.20;1.08;;;30.30;37.20;;;;;;5049489;28;20091;-72
2021/08/28 11:46:25;;;;;;;2.65;1.20;;;30.90;33.00;;;;;;5048497;28;20075;-72
2021/08/28 11:48:51;;;;;;;3.83;1.30;;;31.50;34.60;;;;;;5047604;28;20048;-72
2021/08/28 11:51:18;;;;;;;3.00;1.20;;;32.10;32.40;;;;;;5049751;28;20074;-72
2021/08/28 11:53:49;;;;;;;2.83;1.00;;;32.60;31.80;;;;;;5050498;28;20108;-73
2021/08/28 11:56:17;;;;;;;2.75;1.23;;;32.90;31.50;;;;;;5049693;28;20035;-73
2021/08/28 11:59:05;;;;;;;2.75;1.23;;;32.30;29.60;;;;;;5051308;28;20036;-73
2021/08/28 12:01:42;;;;;;;3.13;1.40;;;30.50;33.00;;;;;;5053767;28;20013;-75
2021/08/28 12:04:18;;;;;;;3.80;1.63;;;29.30;33.30;;;;;;5053751;28;20021;-75
2021/08/28 12:06:51;;;;;;;2.90;1.70;;;29.30;34.20;;;;;;5053659;28;20108;-73
2021/08/28 12:09:20;;;;;;;2.70;1.20;;;28.60;34.30;;;;;;5053509;28;20055;-75
2021/08/28 12:11:48;;;;;;;4.28;1.52;;;27.80;35.00;;;;;;5052942;28;20107;-75
2021/08/28 12:14:13;;;;;;;2.58;1.40;;;27.10;36.40;;;;;;5054996;28;20033;-75
2021/08/28 12:16:41;;;;;;;3.10;1.80;;;27.90;36.50;;;;;;5052386;28;20036;-74
2021/08/28 12:19:08;;;;;;;2.78;1.50;;;29.10;35.00;;;;;;5053356;28;20051;-76
2021/08/28 12:21:38;;;;;;;4.07;1.38;;;30.20;32.70;;;;;;5053475;28;20013;-74
2021/08/28 12:24:21;;;;;;;2.90;1.20;;;30.90;33.00;;;;;;5037692;28;20067;-73
2021/08/28 12:26:52;;;;;;;2.72;1.23;;;30.20;31.80;;;;;;5051862;28;20029;-73
2021/08/28 12:29:37;;;;;;;1.83;1.10;;;30.00;30.50;;;;;;5053600;28;20037;-71
2021/08/28 12:32:08;;;;;;;4.47;1.20;;;31.20;33.60;;;;;;5053563;28;20492;-73
2021/08/28 12:34:35;;;;;;;2.50;0.80;;;32.70;31.00;;;;;;5052032;28;20025;-73
2021/08/28 12:37:07;;;;;;;2.40;0.93;;;33.50;29.20;;;;;;5051843;28;20053;-73
2021/08/28 12:39:34;;;;;;;1.88;0.88;;;33.90;28.40;;;;;;5053222;28;20397;-74
2021/08/28 12:42:00;;;;;;;2.97;0.80;;;33.20;26.60;;;;;;5052758;28;20052;-73
2021/08/28 12:44:30;;;;;;;2.53;0.90;;;31.70;27.30;;;;;;5055115;28;20021;-73
2021/08/28 12:46:57;;;;;;;2.85;1.42;;;30.30;29.70;;;;;;5052908;28;20480;-74
2021/08/28 12:49:25;;;;;;;3.03;1.58;;;31.50;32.60;;;;;;5052667;28;20028;-75